Time;durP1;ratioP1;P1;durP2;ratioP2;P2;SDS_P1;SDS_P2;PMS_P1;PMS_P2;Temp;Humidity;BMP_temperature;BMP_pressure;BME280_temperature;BME280_humidity;BME280_pressure;Samples;Min_cycle;Max_cycle;Signal;HPM_P1;HPM_P2
2023/12/25 00:01:59;;;;;;;54.37;1.80;;;;;;;;;;5037125;28;21277;-72
2023/12/25 00:04:26;;;;;;;55.57;1.90;;;;;;;;;;5048892;28;20519;-72
2023/12/25 00:06:53;;;;;;;55.17;1.80;;;;;;;;;;5040520;28;20469;-71
2023/12/25 00:09:22;;;;;;;54.60;2.00;;;;;;;;;;5036169;28;20918;-71
2023/12/25 00:11:49;;;;;;;55.17;1.73;;;;;;;;;;5035566;28;20475;-72
2023/12/25 00:14:16;;;;;;;56.10;1.67;;;;;;;;;;5036878;28;20487;-70
2023/12/25 00:16:43;;;;;;;55.07;1.80;;;;;;;;;;5038089;28;20456;-71
2023/12/25 00:19:10;;;;;;;55.07;1.70;;;;;;;;;;5037677;28;20528;-71
2023/12/25 00:21:38;;;;;;;55.47;1.80;;;;;;;;;;5037709;28;20456;-71
2023/12/25 00:24:05;;;;;;;55.10;1.90;;;;;;;;;;5037989;28;20539;-71
2023/12/25 00:26:34;;;;;;;55.43;1.83;;;;;;;;;;5037670;28;20463;-71
2023/12/25 00:29:01;;;;;;;55.07;2.00;;;;;;;;;;5037442;28;20463;-71
2023/12/25 00:31:30;;;;;;;54.97;1.90;;;;;;;;;;5037515;28;20472;-71
2023/12/25 00:33:57;;;;;;;55.47;1.90;;;;;;;;;;5035713;28;20855;-71
2023/12/25 00:36:24;;;;;;;55.27;1.73;;;;;;;;;;5047499;28;20453;-72
2023/12/25 00:38:51;;;;;;;55.60;1.70;;;;;;;;;;5055685;28;20459;-72
2023/12/25 00:41:18;;;;;;;55.67;1.70;;;;;;;;;;5056848;28;20830;-71
2023/12/25 00:43:46;;;;;;;55.20;1.87;;;;;;;;;;5058167;28;20548;-71
2023/12/25 00:46:13;;;;;;;55.27;1.63;;;;;;;;;;5056878;28;20443;-71
2023/12/25 00:48:41;;;;;;;55.17;1.80;;;;;;;;;;5057273;28;20446;-69
2023/12/25 00:51:08;;;;;;;55.13;1.80;;;;;;;;;;5056488;28;20954;-71
2023/12/25 00:53:35;;;;;;;55.47;1.70;;;;;;;;;;5056998;28;20504;-71
2023/12/25 00:56:05;;;;;;;55.30;1.77;;;;;;;;;;5058105;28;20464;-71
2023/12/25 00:58:32;;;;;;;55.67;1.70;;;;;;;;;;5058515;28;20939;-71
2023/12/25 01:01:00;;;;;;;55.60;1.70;;;;;;;;;;5058701;28;20455;-71
2023/12/25 01:03:27;;;;;;;55.27;1.67;;;;;;;;;;5057114;28;20463;-71
2023/12/25 01:05:54;;;;;;;55.17;1.83;;;;;;;;;;5058790;28;20621;-72
2023/12/25 01:08:22;;;;;;;55.17;1.63;;;;;;;;;;5057867;28;20457;-70
2023/12/25 01:10:49;;;;;;;55.33;1.73;;;;;;;;;;5057794;28;20533;-71
2023/12/25 01:13:16;;;;;;;55.07;1.90;;;;;;;;;;5058856;28;20554;-71
2023/12/25 01:15:43;;;;;;;55.47;2.10;;;;;;;;;;5058870;28;20549;-71
2023/12/25 01:18:11;;;;;;;55.40;1.70;;;;;;;;;;5057638;28;20453;-71
2023/12/25 01:20:40;;;;;;;55.40;1.60;;;;;;;;;;5057174;28;20462;-71
2023/12/25 01:23:07;;;;;;;54.97;1.60;;;;;;;;;;5056515;28;20479;-71
2023/12/25 01:25:34;;;;;;;54.60;1.70;;;;;;;;;;5059009;28;20506;-71
2023/12/25 01:28:01;;;;;;;55.40;1.60;;;;;;;;;;5057695;28;20450;-71
2023/12/25 01:30:28;;;;;;;55.37;1.70;;;;;;;;;;5056925;28;20951;-71
2023/12/25 01:32:55;;;;;;;55.07;1.77;;;;;;;;;;5041675;28;20471;-71
2023/12/25 01:35:23;;;;;;;54.77;1.77;;;;;;;;;;5038565;28;20463;-71
2023/12/25 01:37:51;;;;;;;55.50;1.67;;;;;;;;;;5039929;28;20458;-71
2023/12/25 01:40:18;;;;;;;55.17;1.70;;;;;;;;;;5041535;28;20455;-70
2023/12/25 01:42:45;;;;;;;55.20;2.27;;;;;;;;;;5039741;28;20541;-71
2023/12/25 01:45:12;;;;;;;55.03;1.73;;;;;;;;;;5039641;28;20539;-71
2023/12/25 01:47:39;;;;;;;54.87;1.80;;;;;;;;;;5038915;28;20517;-72
2023/12/25 01:50:08;;;;;;;55.27;1.67;;;;;;;;;;5038912;28;20515;-71
2023/12/25 01:52:36;;;;;;;55.50;1.90;;;;;;;;;;5038503;28;20834;-71
2023/12/25 01:55:04;;;;;;;55.03;1.83;;;;;;;;;;5041049;28;20585;-71
2023/12/25 01:57:33;;;;;;;55.57;1.70;;;;;;;;;;5040001;28;20533;-71
2023/12/25 02:00:00;;;;;;;55.27;1.70;;;;;;;;;;5039240;28;20455;-70
2023/12/25 02:02:27;;;;;;;55.57;1.70;;;;;;;;;;5038726;28;20465;-71
2023/12/25 02:04:54;;;;;;;55.37;1.90;;;;;;;;;;5040207;28;20563;-70
2023/12/25 02:07:21;;;;;;;55.20;1.80;;;;;;;;;;5039873;28;20465;-71
2023/12/25 02:09:51;;;;;;;55.43;1.80;;;;;;;;;;5043491;28;20485;-71
2023/12/25 02:12:18;;;;;;;55.50;1.73;;;;;;;;;;5043105;28;20483;-70
2023/12/25 02:14:46;;;;;;;55.63;1.80;;;;;;;;;;5041339;28;20562;-71
2023/12/25 02:17:13;;;;;;;55.37;1.67;;;;;;;;;;5042129;28;20465;-70
2023/12/25 02:19:41;;;;;;;55.50;2.07;;;;;;;;;;5043038;28;20451;-70
2023/12/25 02:22:08;;;;;;;55.57;1.80;;;;;;;;;;5043484;28;20498;-70
2023/12/25 02:24:37;;;;;;;55.70;1.70;;;;;;;;;;5042834;28;21007;-71
2023/12/25 02:27:06;;;;;;;55.37;2.00;;;;;;;;;;5041911;28;20538;-70
2023/12/25 02:29:34;;;;;;;55.67;2.20;;;;;;;;;;5043600;28;20451;-71
2023/12/25 02:32:01;;;;;;;55.30;1.80;;;;;;;;;;5043194;28;20479;-70
2023/12/25 02:34:28;;;;;;;55.50;1.70;;;;;;;;;;5042911;28;20501;-71
2023/12/25 02:36:55;;;;;;;55.27;1.70;;;;;;;;;;5043938;28;20466;-70
2023/12/25 02:39:23;;;;;;;55.70;1.90;;;;;;;;;;5043075;28;20539;-71
2023/12/25 02:41:50;;;;;;;55.57;1.70;;;;;;;;;;5042358;28;20483;-71
2023/12/25 02:44:18;;;;;;;55.07;1.80;;;;;;;;;;5042467;28;20538;-71
2023/12/25 02:46:46;;;;;;;54.67;1.90;;;;;;;;;;5042447;28;20550;-71
2023/12/25 02:49:13;;;;;;;55.50;1.80;;;;;;;;;;5041099;28;20482;-70
2023/12/25 02:51:40;;;;;;;55.27;1.73;;;;;;;;;;5041339;28;20455;-71
2023/12/25 02:54:07;;;;;;;54.77;1.50;;;;;;;;;;5052322;28;20493;-70
2023/12/25 02:56:34;;;;;;;55.60;1.80;;;;;;;;;;5040901;28;20466;-71
2023/12/25 02:59:01;;;;;;;55.20;1.67;;;;;;;;;;5040920;28;20455;-70
2023/12/25 03:01:29;;;;;;;55.30;1.73;;;;;;;;;;5055593;28;20542;-71
2023/12/25 03:03:57;;;;;;;55.57;2.10;;;;;;;;;;5044537;28;20538;-71
2023/12/25 03:06:24;;;;;;;55.10;1.80;;;;;;;;;;5047415;28;20549;-71
2023/12/25 03:08:51;;;;;;;54.97;1.90;;;;;;;;;;5048742;28;20443;-70
2023/12/25 03:11:18;;;;;;;55.47;1.80;;;;;;;;;;5045624;28;20457;-71
2023/12/25 03:13:45;;;;;;;54.87;1.80;;;;;;;;;;5048741;28;20530;-71
2023/12/25 03:16:12;;;;;;;54.93;1.60;;;;;;;;;;5042112;28;20462;-71
2023/12/25 03:18:40;;;;;;;54.83;1.80;;;;;;;;;;5048432;28;20460;-71
2023/12/25 03:21:08;;;;;;;54.87;1.70;;;;;;;;;;5039392;28;20965;-71
2023/12/25 03:23:35;;;;;;;55.57;1.80;;;;;;;;;;5039179;28;20489;-71
2023/12/25 03:26:02;;;;;;;54.47;1.67;;;;;;;;;;5039820;28;20457;-71
2023/12/25 03:28:29;;;;;;;54.60;1.60;;;;;;;;;;5042019;28;20454;-71
2023/12/25 03:30:56;;;;;;;55.27;1.70;;;;;;;;;;5044644;28;20456;-72
2023/12/25 03:33:24;;;;;;;55.40;1.70;;;;;;;;;;5038965;28;20483;-70
2023/12/25 03:35:52;;;;;;;54.67;1.70;;;;;;;;;;5046672;28;20494;-71
2023/12/25 03:38:19;;;;;;;55.10;1.87;;;;;;;;;;5044023;28;20525;-71
2023/12/25 03:40:46;;;;;;;55.17;1.70;;;;;;;;;;5045855;28;20462;-71
2023/12/25 03:43:13;;;;;;;55.20;1.80;;;;;;;;;;5038526;28;20479;-71
2023/12/25 03:45:41;;;;;;;55.07;1.70;;;;;;;;;;5038836;28;20458;-71
2023/12/25 03:48:09;;;;;;;55.60;1.93;;;;;;;;;;5039230;28;20528;-70
2023/12/25 03:50:36;;;;;;;55.20;1.60;;;;;;;;;;5050831;28;20495;-70
2023/12/25 03:53:05;;;;;;;55.27;1.67;;;;;;;;;;5058840;28;20467;-71
2023/12/25 03:55:32;;;;;;;55.37;1.70;;;;;;;;;;5058752;28;20497;-72
2023/12/25 03:57:59;;;;;;;55.20;1.70;;;;;;;;;;5057878;28;20464;-71
2023/12/25 04:00:26;;;;;;;55.07;1.60;;;;;;;;;;5057798;28;20450;-71
2023/12/25 04:02:53;;;;;;;55.07;2.00;;;;;;;;;;5057574;28;20484;-72
2023/12/25 04:05:20;;;;;;;55.57;1.80;;;;;;;;;;5050287;28;20459;-71
2023/12/25 04:07:47;;;;;;;54.87;1.90;;;;;;;;;;5040353;28;20486;-71
2023/12/25 04:10:16;;;;;;;55.70;1.83;;;;;;;;;;5040982;28;20527;-70
2023/12/25 04:12:43;;;;;;;55.40;1.90;;;;;;;;;;5040292;28;20473;-72
2023/12/25 04:15:10;;;;;;;55.70;1.80;;;;;;;;;;5041764;28;20561;-69
2023/12/25 04:17:38;;;;;;;70.73;1.90;;;;;;;;;;5040611;28;20455;-71
2023/12/25 04:20:05;;;;;;;55.30;1.83;;;;;;;;;;5040573;28;20527;-71
2023/12/25 04:22:32;;;;;;;55.60;1.90;;;;;;;;;;5041242;28;21218;-72
2023/12/25 04:24:59;;;;;;;55.30;1.70;;;;;;;;;;5041601;28;20527;-71
2023/12/25 04:27:28;;;;;;;55.40;1.90;;;;;;;;;;5041751;28;20549;-71
2023/12/25 04:29:55;;;;;;;54.93;1.70;;;;;;;;;;5039634;28;20464;-71
2023/12/25 04:32:22;;;;;;;55.27;1.90;;;;;;;;;;5038355;28;20564;-71
2023/12/25 04:34:49;;;;;;;54.67;1.70;;;;;;;;;;5039484;28;20498;-70
2023/12/25 04:37:16;;;;;;;55.73;1.90;;;;;;;;;;5038914;28;20464;-72
2023/12/25 04:39:43;;;;;;;55.47;1.90;;;;;;;;;;5038238;28;20455;-72
2023/12/25 04:42:10;;;;;;;55.13;1.80;;;;;;;;;;5037441;28;20482;-71
2023/12/25 04:44:39;;;;;;;55.47;1.80;;;;;;;;;;5049473;28;20543;-71
2023/12/25 04:47:06;;;;;;;55.50;1.90;;;;;;;;;;5057755;28;20562;-69
2023/12/25 04:49:33;;;;;;;55.40;2.03;;;;;;;;;;5057443;28;20442;-70
2023/12/25 04:52:00;;;;;;;55.50;1.90;;;;;;;;;;5057808;28;20516;-71
2023/12/25 04:54:27;;;;;;;55.37;1.70;;;;;;;;;;5057021;28;20491;-69
2023/12/25 04:56:56;;;;;;;55.50;1.90;;;;;;;;;;5058297;28;20825;-71
2023/12/25 04:59:22;;;;;;;55.07;1.90;;;;;;;;;;5056919;28;20949;-70
2023/12/25 05:01:53;;;;;;;55.50;1.50;;;;;;;;;;5058338;28;20471;-71
2023/12/25 05:04:20;;;;;;;55.47;2.00;;;;;;;;;;5057966;28;20568;-71
2023/12/25 05:06:47;;;;;;;55.27;1.83;;;;;;;;;;5057932;28;20467;-71
2023/12/25 05:09:14;;;;;;;55.40;1.70;;;;;;;;;;5057553;28;20456;-71
2023/12/25 05:11:41;;;;;;;55.17;1.80;;;;;;;;;;5056655;28;20457;-71
2023/12/25 05:14:08;;;;;;;55.40;1.93;;;;;;;;;;5057901;28;20468;-71
2023/12/25 05:16:35;;;;;;;54.77;1.70;;;;;;;;;;5058570;28;20748;-71
2023/12/25 05:19:04;;;;;;;55.40;1.80;;;;;;;;;;5058307;28;20476;-71
2023/12/25 05:21:31;;;;;;;55.60;2.20;;;;;;;;;;5058850;28;20453;-71
2023/12/25 05:23:58;;;;;;;55.37;1.60;;;;;;;;;;5059018;28;20813;-70
2023/12/25 05:26:27;;;;;;;54.77;1.63;;;;;;;;;;5058376;28;20516;-71
2023/12/25 05:28:54;;;;;;;54.67;2.00;;;;;;;;;;5058483;28;20499;-71
2023/12/25 05:31:21;;;;;;;55.17;2.03;;;;;;;;;;5057665;28;20958;-71
2023/12/25 05:33:48;;;;;;;54.93;1.90;;;;;;;;;;5057896;28;21100;-71
2023/12/25 05:36:16;;;;;;;55.40;1.80;;;;;;;;;;5057524;28;20494;-71
2023/12/25 05:38:43;;;;;;;55.70;2.17;;;;;;;;;;5057786;28;20446;-71
2023/12/25 05:41:11;;;;;;;55.23;1.80;;;;;;;;;;5057869;28;20457;-71
2023/12/25 05:43:38;;;;;;;55.23;1.90;;;;;;;;;;5057901;28;20470;-71
2023/12/25 05:46:05;;;;;;;55.30;1.80;;;;;;;;;;5062100;28;20450;-71
2023/12/25 05:48:32;;;;;;;55.60;1.80;;;;;;;;;;5061707;28;20465;-72
2023/12/25 05:50:59;;;;;;;55.57;2.20;;;;;;;;;;5061173;28;20454;-71
2023/12/25 05:53:27;;;;;;;55.30;1.70;;;;;;;;;;5061781;28;20866;-71
2023/12/25 05:55:55;;;;;;;55.60;1.70;;;;;;;;;;5061091;28;20571;-71
2023/12/25 05:58:22;;;;;;;55.27;1.70;;;;;;;;;;5061327;28;20450;-71
2023/12/25 06:00:49;;;;;;;55.27;1.77;;;;;;;;;;5061089;28;20454;-71
2023/12/25 06:03:16;;;;;;;55.60;1.73;;;;;;;;;;5059915;28;20477;-71
2023/12/25 06:05:43;;;;;;;54.77;1.80;;;;;;;;;;5060579;28;20440;-71
2023/12/25 06:08:10;;;;;;;55.20;1.83;;;;;;;;;;5060836;28;20826;-71
2023/12/25 06:10:38;;;;;;;55.40;1.70;;;;;;;;;;5060415;28;20443;-71
2023/12/25 06:13:05;;;;;;;54.93;1.70;;;;;;;;;;5059557;28;20470;-71
2023/12/25 06:15:33;;;;;;;55.27;1.70;;;;;;;;;;5058301;28;20481;-71
2023/12/25 06:18:00;;;;;;;54.53;1.70;;;;;;;;;;5059566;28;20450;-69
2023/12/25 06:20:27;;;;;;;55.53;1.77;;;;;;;;;;5059625;28;20454;-69
2023/12/25 06:22:54;;;;;;;55.37;1.90;;;;;;;;;;5059334;28;21001;-69
2023/12/25 06:25:21;;;;;;;55.57;1.70;;;;;;;;;;5058928;28;20450;-68
2023/12/25 06:27:50;;;;;;;55.50;1.70;;;;;;;;;;5059456;28;20463;-71
2023/12/25 06:30:17;;;;;;;55.20;1.70;;;;;;;;;;5058567;28;20458;-69
2023/12/25 06:32:44;;;;;;;55.43;1.63;;;;;;;;;;5061181;28;20472;-71
2023/12/25 06:35:11;;;;;;;55.30;1.90;;;;;;;;;;5059085;28;20955;-70
2023/12/25 06:37:38;;;;;;;55.40;1.40;;;;;;;;;;5059298;28;20451;-71
2023/12/25 06:40:06;;;;;;;55.33;1.90;;;;;;;;;;5058652;28;20450;-70
2023/12/25 06:42:33;;;;;;;54.63;1.70;;;;;;;;;;5057685;28;20473;-71
2023/12/25 06:45:01;;;;;;;55.37;1.90;;;;;;;;;;5058294;28;20457;-71
2023/12/25 06:47:28;;;;;;;55.60;1.70;;;;;;;;;;5049717;28;20466;-71
2023/12/25 06:49:55;;;;;;;55.23;2.00;;;;;;;;;;5057648;28;20458;-71
2023/12/25 06:52:23;;;;;;;54.53;1.67;;;;;;;;;;5056814;28;20474;-71
2023/12/25 06:54:50;;;;;;;55.40;1.67;;;;;;;;;;5051832;28;20457;-71
2023/12/25 06:57:17;;;;;;;55.17;1.80;;;;;;;;;;5037473;28;20459;-71
2023/12/25 06:59:44;;;;;;;55.07;1.90;;;;;;;;;;5048908;28;20487;-71
2023/12/25 07:02:13;;;;;;;55.60;1.90;;;;;;;;;;5056926;28;20501;-70
2023/12/25 07:04:40;;;;;;;55.20;1.80;;;;;;;;;;5057346;28;20443;-71
2023/12/25 07:07:09;;;;;;;55.37;1.57;;;;;;;;;;5057255;28;20450;-71
2023/12/25 07:09:41;;;;;;;55.40;1.60;;;;;;;;;;5057508;28;20955;-71
2023/12/25 07:12:09;;;;;;;54.30;1.60;;;;;;;;;;5057439;28;20474;-71
2023/12/25 07:14:36;;;;;;;55.23;1.80;;;;;;;;;;5056614;28;20458;-71
2023/12/25 07:17:04;;;;;;;55.43;1.60;;;;;;;;;;5056520;28;20514;-71
2023/12/25 07:19:33;;;;;;;54.77;1.53;;;;;;;;;;5057341;28;20472;-71
2023/12/25 07:22:01;;;;;;;55.50;1.70;;;;;;;;;;5056779;28;20535;-70
2023/12/25 07:24:28;;;;;;;55.17;1.80;;;;;;;;;;5056937;28;20531;-70
2023/12/25 07:26:55;;;;;;;54.83;1.40;;;;;;;;;;5057204;28;20830;-71
2023/12/25 07:29:23;;;;;;;55.50;1.80;;;;;;;;;;5056442;28;20458;-70
2023/12/25 07:31:50;;;;;;;55.30;1.80;;;;;;;;;;5059348;28;20474;-70
2023/12/25 07:34:17;;;;;;;54.47;1.80;;;;;;;;;;5057270;28;20453;-71
2023/12/25 07:36:46;;;;;;;55.40;1.70;;;;;;;;;;5037346;28;20535;-71
2023/12/25 07:39:14;;;;;;;55.40;1.70;;;;;;;;;;5037129;28;20455;-70
2023/12/25 07:41:42;;;;;;;54.77;1.60;;;;;;;;;;5036270;28;20456;-71
2023/12/25 07:44:09;;;;;;;55.07;1.60;;;;;;;;;;5036794;28;20451;-71
2023/12/25 07:46:36;;;;;;;55.10;1.70;;;;;;;;;;5036414;28;20453;-70
2023/12/25 07:49:03;;;;;;;55.60;1.73;;;;;;;;;;5036859;28;20817;-71
2023/12/25 07:51:30;;;;;;;54.97;1.87;;;;;;;;;;5036545;28;20469;-70
2023/12/25 07:53:59;;;;;;;54.90;1.80;;;;;;;;;;5035967;28;20454;-71
2023/12/25 07:56:26;;;;;;;55.20;1.60;;;;;;;;;;5036185;28;20479;-71
2023/12/25 07:58:53;;;;;;;55.40;1.70;;;;;;;;;;5036562;28;20450;-70
2023/12/25 08:01:22;;;;;;;55.37;1.70;;;;;;;;;;5036476;28;20462;-71
2023/12/25 08:03:49;;;;;;;54.87;1.80;;;;;;;;;;5047851;28;21003;-71
2023/12/25 08:06:16;;;;;;;55.07;1.67;;;;;;;;;;5055739;28;20830;-71
2023/12/25 08:08:44;;;;;;;55.50;1.80;;;;;;;;;;5056450;28;20533;-71
2023/12/25 08:11:15;;;;;;;55.43;1.77;;;;;;;;;;5056492;28;20938;-71
2023/12/25 08:13:42;;;;;;;55.00;1.60;;;;;;;;;;5055332;28;20528;-71
2023/12/25 08:16:09;;;;;;;55.37;1.50;;;;;;;;;;5056213;28;20490;-70
2023/12/25 08:18:36;;;;;;;55.10;1.90;;;;;;;;;;5045407;28;20459;-70
2023/12/25 08:21:04;;;;;;;55.07;2.00;;;;;;;;;;5035805;28;20459;-70
2023/12/25 08:23:31;;;;;;;54.90;1.80;;;;;;;;;;5035234;28;20479;-71
2023/12/25 08:25:58;;;;;;;55.37;1.50;;;;;;;;;;5036144;28;20452;-70
2023/12/25 08:28:27;;;;;;;55.30;1.73;;;;;;;;;;5038585;28;20522;-69
2023/12/25 08:30:54;;;;;;;54.97;2.00;;;;;;;;;;5054646;28;20818;-70
2023/12/25 08:33:21;;;;;;;55.20;1.80;;;;;;;;;;5044009;28;20474;-70
2023/12/25 08:35:48;;;;;;;55.40;1.70;;;;;;;;;;5044893;28;20494;-71
2023/12/25 08:38:15;;;;;;;55.40;1.70;;;;;;;;;;5045823;28;20455;-71
2023/12/25 08:40:42;;;;;;;55.13;1.90;;;;;;;;;;5036382;28;20451;-70
2023/12/25 08:43:09;;;;;;;54.40;1.87;;;;;;;;;;5036508;28;20471;-70
2023/12/25 08:45:38;;;;;;;55.10;2.10;;;;;;;;;;5036179;28;20748;-71
2023/12/25 08:48:05;;;;;;;55.27;1.77;;;;;;;;;;5037591;28;20462;-70
2023/12/25 08:50:32;;;;;;;55.67;1.87;;;;;;;;;;5037044;28;20454;-70
2023/12/25 08:53:00;;;;;;;55.20;1.77;;;;;;;;;;5036106;28;20467;-70
2023/12/25 08:55:27;;;;;;;56.77;3.40;;;;;;;;;;5038395;28;20451;-70
2023/12/25 08:57:54;;;;;;;54.70;1.60;;;;;;;;;;5040556;28;20455;-70
2023/12/25 09:00:21;;;;;;;55.13;1.70;;;;;;;;;;5040261;28;20452;-70
2023/12/25 09:02:49;;;;;;;55.27;1.80;;;;;;;;;;5035135;28;20478;-71
2023/12/25 09:05:17;;;;;;;54.67;1.80;;;;;;;;;;5035654;28;20554;-70
2023/12/25 09:07:44;;;;;;;55.27;1.83;;;;;;;;;;5037312;28;20452;-70
2023/12/25 09:10:11;;;;;;;55.20;1.83;;;;;;;;;;5037049;28;20474;-70
2023/12/25 09:12:39;;;;;;;54.60;1.80;;;;;;;;;;5038697;28;21288;-70
2023/12/25 09:15:06;;;;;;;55.20;1.93;;;;;;;;;;5039428;28;20439;-70
2023/12/25 09:17:34;;;;;;;55.20;1.73;;;;;;;;;;5034969;28;20487;-70
2023/12/25 09:20:02;;;;;;;55.60;2.97;;;;;;;;;;5042644;28;20526;-70
2023/12/25 09:22:29;;;;;;;55.23;1.90;;;;;;;;;;5047219;28;20572;-70
2023/12/25 09:24:56;;;;;;;55.30;1.73;;;;;;;;;;5039235;28;20467;-69
2023/12/25 09:27:23;;;;;;;63.40;2.60;;;;;;;;;;5041774;28;20459;-70
2023/12/25 09:29:50;;;;;;;54.97;2.10;;;;;;;;;;5048146;28;20454;-69
2023/12/25 09:32:18;;;;;;;60.80;1.97;;;;;;;;;;5051193;28;21033;-70
2023/12/25 09:34:45;;;;;;;55.07;1.83;;;;;;;;;;5037459;28;20456;-69
2023/12/25 09:37:13;;;;;;;55.50;1.80;;;;;;;;;;5035209;28;20503;-70
2023/12/25 09:39:43;;;;;;;55.37;1.80;;;;;;;;;;5035204;28;20452;-70
2023/12/25 09:42:10;;;;;;;54.77;1.70;;;;;;;;;;5036115;28;20476;-70
2023/12/25 09:44:37;;;;;;;55.70;1.90;;;;;;;;;;5035453;28;20453;-70
2023/12/25 09:47:06;;;;;;;55.17;1.80;;;;;;;;;;5036135;28;20453;-71
2023/12/25 09:49:36;;;;;;;55.50;1.67;;;;;;;;;;5036081;28;20459;-70
2023/12/25 09:52:03;;;;;;;55.50;1.70;;;;;;;;;;5035818;28;20471;-70
2023/12/25 09:54:33;;;;;;;55.50;1.70;;;;;;;;;;5035246;28;20456;-71
2023/12/25 09:57:01;;;;;;;55.07;1.67;;;;;;;;;;5035719;28;20491;-71
2023/12/25 09:59:29;;;;;;;55.03;1.70;;;;;;;;;;5035938;28;20455;-71
2023/12/25 10:01:57;;;;;;;55.20;1.60;;;;;;;;;;5035815;28;20473;-71
2023/12/25 10:04:25;;;;;;;55.47;1.63;;;;;;;;;;5035908;28;20459;-68
2023/12/25 10:06:52;;;;;;;54.70;1.53;;;;;;;;;;5036601;28;20454;-71
2023/12/25 10:09:19;;;;;;;55.70;2.17;;;;;;;;;;5037357;28;20460;-70
2023/12/25 10:11:48;;;;;;;55.40;1.80;;;;;;;;;;5036961;28;20454;-71
2023/12/25 10:14:15;;;;;;;54.97;2.00;;;;;;;;;;5037167;28;20454;-71
2023/12/25 10:16:42;;;;;;;55.50;1.80;;;;;;;;;;5036751;28;21012;-71
2023/12/25 10:19:11;;;;;;;55.43;1.80;;;;;;;;;;5035241;28;20462;-71
2023/12/25 10:21:44;;;;;;;55.57;1.67;;;;;;;;;;5035006;28;20459;-71
2023/12/25 10:24:13;;;;;;;55.63;1.80;;;;;;;;;;5034210;28;20468;-70
2023/12/25 10:26:40;;;;;;;55.53;1.80;;;;;;;;;;5034986;28;20461;-71
2023/12/25 10:29:09;;;;;;;55.60;1.60;;;;;;;;;;5033874;28;20958;-71
2023/12/25 10:31:37;;;;;;;55.33;1.60;;;;;;;;;;5037384;28;20461;-71
2023/12/25 10:34:04;;;;;;;55.37;1.80;;;;;;;;;;5037807;28;20868;-71
2023/12/25 10:36:32;;;;;;;55.67;1.90;;;;;;;;;;5036662;28;20502;-69
2023/12/25 10:38:59;;;;;;;55.57;2.00;;;;;;;;;;5038003;28;20465;-71
2023/12/25 10:41:30;;;;;;;55.50;2.00;;;;;;;;;;5038294;28;20522;-71
2023/12/25 10:43:58;;;;;;;55.07;1.90;;;;;;;;;;5049278;28;20450;-71
2023/12/25 10:46:27;;;;;;;55.83;2.17;;;;;;;;;;5058073;28;20448;-71
2023/12/25 10:48:55;;;;;;;55.03;1.80;;;;;;;;;;5050917;28;20538;-70
2023/12/25 10:51:26;;;;;;;55.67;1.60;;;;;;;;;;5051331;28;20971;-71
2023/12/25 10:53:54;;;;;;;55.47;1.70;;;;;;;;;;5050420;28;20475;-71
2023/12/25 10:56:22;;;;;;;54.80;1.50;;;;;;;;;;5052026;28;20490;-71
2023/12/25 10:58:50;;;;;;;55.47;1.93;;;;;;;;;;5055881;28;20456;-71
2023/12/25 11:01:20;;;;;;;56.60;2.73;;;;;;;;;;5054652;28;20450;-71
2023/12/25 11:03:49;;;;;;;55.23;1.80;;;;;;;;;;5045495;28;20480;-71
2023/12/25 11:06:16;;;;;;;55.47;1.83;;;;;;;;;;5045039;28;20519;-71
2023/12/25 11:08:44;;;;;;;55.47;1.70;;;;;;;;;;5051820;28;21006;-71
2023/12/25 11:11:13;;;;;;;55.60;2.07;;;;;;;;;;5040857;28;20937;-71
2023/12/25 11:13:40;;;;;;;55.37;2.00;;;;;;;;;;5047525;28;20518;-71
2023/12/25 11:16:08;;;;;;;55.60;1.90;;;;;;;;;;5052453;28;21009;-71
2023/12/25 11:18:37;;;;;;;55.53;1.90;;;;;;;;;;5048905;28;20458;-71
2023/12/25 11:21:06;;;;;;;55.80;2.47;;;;;;;;;;5043544;28;20545;-71
2023/12/25 11:23:34;;;;;;;55.03;1.77;;;;;;;;;;5046349;28;21054;-71
2023/12/25 11:26:03;;;;;;;55.27;1.80;;;;;;;;;;5043173;28;20464;-71
2023/12/25 11:28:32;;;;;;;55.43;1.90;;;;;;;;;;5047740;28;20475;-71
2023/12/25 11:31:01;;;;;;;55.57;1.90;;;;;;;;;;5051079;28;20912;-71
2023/12/25 11:33:28;;;;;;;55.40;1.97;;;;;;;;;;5052386;28;20554;-71
2023/12/25 11:35:55;;;;;;;55.27;1.73;;;;;;;;;;5048135;28;20539;-70
2023/12/25 11:38:35;;;;;;;55.10;1.90;;;;;;;;;;5050473;28;20483;-71
2023/12/25 11:41:03;;;;;;;55.70;1.70;;;;;;;;;;5039762;28;20483;-71
2023/12/25 11:43:34;;;;;;;55.47;2.20;;;;;;;;;;5051350;28;20475;-71
2023/12/25 11:46:03;;;;;;;55.53;1.90;;;;;;;;;;5051678;28;20470;-70
2023/12/25 11:48:32;;;;;;;55.50;1.70;;;;;;;;;;5055319;28;20474;-71
2023/12/25 11:51:00;;;;;;;55.47;2.00;;;;;;;;;;5046209;28;20453;-70
2023/12/25 11:53:38;;;;;;;55.43;2.00;;;;;;;;;;5052412;28;20475;-70
2023/12/25 11:56:06;;;;;;;55.70;1.87;;;;;;;;;;5056393;28;20465;-70
2023/12/25 11:58:34;;;;;;;55.40;1.90;;;;;;;;;;5043088;28;20539;-71
2023/12/25 12:01:01;;;;;;;54.97;1.90;;;;;;;;;;5042294;28;20543;-72
2023/12/25 12:03:28;;;;;;;55.50;1.80;;;;;;;;;;5043074;28;20486;-71
2023/12/25 12:05:55;;;;;;;55.43;1.90;;;;;;;;;;5051400;28;20844;-71
2023/12/25 12:08:22;;;;;;;55.53;1.90;;;;;;;;;;5047324;28;20443;-72
2023/12/25 12:10:52;;;;;;;55.17;1.77;;;;;;;;;;5044826;28;20966;-72
2023/12/25 12:13:19;;;;;;;55.27;2.10;;;;;;;;;;5043267;28;20475;-71
2023/12/25 12:15:46;;;;;;;55.70;1.80;;;;;;;;;;5041475;28;20461;-70
2023/12/25 12:18:13;;;;;;;54.97;1.90;;;;;;;;;;5045675;28;21025;-72
2023/12/25 12:20:40;;;;;;;55.70;2.03;;;;;;;;;;5038959;28;20460;-71
2023/12/25 12:23:13;;;;;;;55.27;1.70;;;;;;;;;;5038497;28;20479;-72
2023/12/25 12:25:40;;;;;;;55.37;1.83;;;;;;;;;;5038232;28;20486;-70
2023/12/25 12:28:08;;;;;;;55.57;1.53;;;;;;;;;;5038474;28;20473;-71
2023/12/25 12:30:36;;;;;;;55.90;1.83;;;;;;;;;;5040051;28;20459;-71
2023/12/25 12:33:04;;;;;;;55.57;1.67;;;;;;;;;;5039525;28;20472;-71
2023/12/25 12:35:31;;;;;;;55.70;1.87;;;;;;;;;;5039413;28;20498;-71
2023/12/25 12:38:01;;;;;;;55.20;1.63;;;;;;;;;;5039387;28;20585;-71
2023/12/25 12:40:29;;;;;;;55.40;1.90;;;;;;;;;;5040575;28;20752;-71
2023/12/25 12:42:56;;;;;;;55.37;1.60;;;;;;;;;;5039767;28;20543;-71
2023/12/25 12:45:24;;;;;;;55.90;1.83;;;;;;;;;;5039539;28;20546;-71
2023/12/25 12:47:52;;;;;;;55.60;1.70;;;;;;;;;;5039093;28;20549;-71
2023/12/25 12:50:19;;;;;;;55.47;1.73;;;;;;;;;;5038671;28;20452;-71
2023/12/25 12:52:47;;;;;;;55.50;1.60;;;;;;;;;;5037861;28;20479;-72
2023/12/25 12:55:14;;;;;;;55.50;1.90;;;;;;;;;;5037462;28;20456;-72
2023/12/25 12:57:41;;;;;;;55.27;1.90;;;;;;;;;;5036186;28;20487;-71
2023/12/25 13:00:09;;;;;;;55.57;1.90;;;;;;;;;;5037942;28;20463;-72
2023/12/25 13:02:38;;;;;;;55.30;1.80;;;;;;;;;;5036818;28;20817;-71
2023/12/25 13:05:05;;;;;;;55.30;1.60;;;;;;;;;;5038452;28;20444;-71
2023/12/25 13:07:32;;;;;;;55.47;1.77;;;;;;;;;;5038406;28;20443;-71
2023/12/25 13:10:00;;;;;;;55.40;1.70;;;;;;;;;;5037507;28;20448;-71
2023/12/25 13:12:27;;;;;;;55.57;1.60;;;;;;;;;;5036800;28;20467;-70
2023/12/25 13:14:54;;;;;;;55.07;1.60;;;;;;;;;;5036577;28;20479;-71
2023/12/25 13:17:21;;;;;;;55.17;1.80;;;;;;;;;;5037314;28;20546;-71
2023/12/25 13:19:50;;;;;;;55.47;1.73;;;;;;;;;;5036029;28;20555;-71
2023/12/25 13:22:17;;;;;;;55.47;1.90;;;;;;;;;;5035378;28;20538;-70
2023/12/25 13:24:44;;;;;;;56.57;2.10;;;;;;;;;;5033945;28;20547;-72
2023/12/25 13:27:12;;;;;;;55.10;1.90;;;;;;;;;;5035679;28;20515;-70
2023/12/25 13:29:39;;;;;;;54.60;1.87;;;;;;;;;;5035325;28;20825;-71
2023/12/25 13:32:06;;;;;;;55.17;1.80;;;;;;;;;;5036602;28;20523;-72
2023/12/25 13:34:33;;;;;;;55.50;1.90;;;;;;;;;;5036612;28;20479;-72
2023/12/25 13:37:04;;;;;;;55.67;2.00;;;;;;;;;;5037964;28;20476;-71
2023/12/25 13:39:32;;;;;;;55.70;1.70;;;;;;;;;;5037796;28;20478;-71
2023/12/25 13:41:59;;;;;;;55.27;1.80;;;;;;;;;;5037200;28;20476;-71
2023/12/25 13:44:26;;;;;;;54.87;1.80;;;;;;;;;;5043798;28;20486;-72
2023/12/25 13:46:54;;;;;;;55.50;1.83;;;;;;;;;;5045585;28;20542;-71
2023/12/25 13:49:21;;;;;;;55.40;1.60;;;;;;;;;;5036237;28;20536;-72
2023/12/25 13:51:48;;;;;;;55.80;2.13;;;;;;;;;;5037785;28;20498;-71
2023/12/25 13:54:16;;;;;;;55.37;1.80;;;;;;;;;;5043756;28;20495;-71
2023/12/25 13:56:44;;;;;;;55.30;1.90;;;;;;;;;;5035456;28;20516;-70
2023/12/25 13:59:11;;;;;;;55.70;1.90;;;;;;;;;;5037533;28;20587;-71
2023/12/25 14:01:38;;;;;;;55.30;1.70;;;;;;;;;;5037268;28;20811;-71
2023/12/25 14:04:05;;;;;;;54.77;1.80;;;;;;;;;;5048537;28;20487;-71
2023/12/25 14:06:33;;;;;;;54.97;1.83;;;;;;;;;;5061300;28;20556;-71
2023/12/25 14:09:00;;;;;;;54.93;2.00;;;;;;;;;;5060776;28;20448;-70
2023/12/25 14:11:29;;;;;;;56.20;2.73;;;;;;;;;;5050909;28;20474;-71
2023/12/25 14:13:56;;;;;;;55.13;1.90;;;;;;;;;;5055742;28;20508;-71
2023/12/25 14:16:23;;;;;;;55.07;1.80;;;;;;;;;;5053380;28;20982;-72
2023/12/25 14:18:50;;;;;;;55.17;2.07;;;;;;;;;;5055916;28;20524;-71
2023/12/25 14:21:17;;;;;;;55.63;1.80;;;;;;;;;;5050485;28;20485;-72
2023/12/25 14:23:45;;;;;;;55.40;1.90;;;;;;;;;;5050393;28;20492;-71
2023/12/25 14:26:12;;;;;;;55.03;2.00;;;;;;;;;;5040560;28;20887;-71
2023/12/25 14:28:40;;;;;;;55.70;1.70;;;;;;;;;;5057643;28;20458;-71
2023/12/25 14:31:07;;;;;;;55.47;1.87;;;;;;;;;;5040526;28;20887;-72
2023/12/25 14:33:34;;;;;;;55.17;1.87;;;;;;;;;;5050276;28;20562;-71